createdAt,value
2023-02-04T00:01:57.635Z,98438.72
2023-02-04T00:04:01.800Z,98436.13
2023-02-04T00:06:06.418Z,98429.28
2023-02-04T00:08:10.784Z,98436.13
2023-02-04T00:10:15.175Z,98449.28
2023-02-04T00:12:20.918Z,98457.53
2023-02-04T00:14:25.046Z,98457.44
2023-02-04T00:16:29.208Z,98457.69
2023-02-04T00:18:33.371Z,98452.53
2023-02-04T00:20:37.940Z,98444.16
2023-02-04T00:22:42.086Z,98448.25
2023-02-04T00:24:49.807Z,98448.75
2023-02-04T00:26:53.885Z,98453.94
2023-02-04T00:28:59.417Z,98447.34
2023-02-04T00:31:03.533Z,98448.69
2023-02-04T00:33:07.825Z,98456.06
2023-02-04T00:35:12.115Z,98448.97
2023-02-04T00:37:16.196Z,98455.47
2023-02-04T00:39:20.341Z,98464.75
2023-02-04T00:41:24.485Z,98460.16
2023-02-04T00:43:28.587Z,98451.16
2023-02-04T00:45:34.041Z,98450.34
2023-02-04T00:47:38.303Z,98463.22
2023-02-04T00:49:42.393Z,98463.03
2023-02-04T00:51:46.743Z,98462.06
2023-02-04T00:53:50.997Z,98459.47
2023-02-04T00:55:55.191Z,98461.16
2023-02-04T00:57:59.358Z,98461.97
2023-02-04T01:00:03.467Z,98457.59
2023-02-04T01:02:08.922Z,98454.06
2023-02-04T01:04:13.120Z,98460.91
2023-02-04T01:06:17.199Z,98464.47
2023-02-04T01:08:21.615Z,98459.97
2023-02-04T01:10:26.641Z,98456.41
2023-02-04T01:12:30.799Z,98455.59
2023-02-04T01:14:35.287Z,98454.78
2023-02-04T01:16:39.448Z,98469.44
2023-02-04T01:18:44.932Z,98472.88
2023-02-04T01:20:49.346Z,98468.63
2023-02-04T01:22:54.505Z,98472.88
2023-02-04T01:24:58.596Z,98472.88
2023-02-04T01:27:18.562Z,98472.88
2023-02-04T01:29:22.651Z,98467.66
2023-02-04T01:31:28.305Z,98473.72
2023-02-04T01:33:32.644Z,98465.91
2023-02-04T01:35:38.157Z,98465.91
2023-02-04T01:37:42.266Z,98462.44
2023-02-04T01:39:46.337Z,98464.94
2023-02-04T01:41:50.833Z,98448.59
2023-02-04T01:43:54.912Z,98455.50
2023-02-04T01:45:59.078Z,98452.03
2023-02-04T01:48:04.059Z,98452.03
2023-02-04T01:50:09.166Z,98445.06
2023-02-04T01:52:14.718Z,98449.41
2023-02-04T01:54:20.836Z,98452.75
2023-02-04T01:56:26.423Z,98450.28
2023-02-04T01:58:30.823Z,98459.84
2023-02-04T02:00:35.557Z,98461.53
2023-02-04T02:02:46.779Z,98456.31
2023-02-04T02:04:50.891Z,98437.13
2023-02-04T02:06:57.523Z,98434.66
2023-02-04T02:09:02.990Z,98428.47
2023-02-04T02:11:07.262Z,98431.06
2023-02-04T02:13:12.575Z,98418.06
2023-02-04T02:15:17.222Z,98416.28
2023-02-04T02:17:21.315Z,98406.81
2023-02-04T02:19:27.190Z,98405.03
2023-02-04T02:21:34.346Z,98397.31
2023-02-04T02:23:57.921Z,98410.22
2023-02-04T02:26:02.365Z,98409.31
2023-02-04T02:28:10.194Z,98405.84
2023-02-04T02:30:14.803Z,98400.63
2023-02-04T02:32:18.890Z,98411.91
2023-02-04T02:34:23.125Z,98431.81
2023-02-04T02:36:27.254Z,98419.72
2023-02-04T02:38:31.404Z,98412.72
2023-02-04T02:40:37.034Z,98403.13
2023-02-04T02:42:41.097Z,98399.81
2023-02-04T02:44:45.326Z,98406.81
2023-02-04T02:46:49.505Z,98398.88
2023-02-04T02:48:53.595Z,98413.56
2023-02-04T02:50:57.703Z,98400.53
2023-02-04T02:53:01.891Z,98403.13
2023-02-04T02:55:06.582Z,98397.94
2023-02-04T02:57:14.984Z,98389.28
2023-02-04T02:59:19.174Z,98392.72
2023-02-04T03:01:23.325Z,98404.91
2023-02-04T03:03:28.562Z,98390.09
2023-02-04T03:05:33.717Z,98390.94
2023-02-04T03:07:38.104Z,98384.78
2023-02-04T03:09:42.198Z,98394.38
2023-02-04T03:11:46.314Z,98399.59
2023-02-04T03:13:51.919Z,98386.56
2023-02-04T03:15:56.044Z,98400.44
2023-02-04T03:18:00.190Z,98401.25
2023-02-04T03:20:04.698Z,98397.81
2023-02-04T03:22:09.095Z,98408.25
2023-02-04T03:24:13.306Z,98405.53
2023-02-04T03:26:17.517Z,98409.88
2023-02-04T03:28:22.592Z,98418.66
2023-02-04T03:30:28.229Z,98415.09
2023-02-04T03:32:32.675Z,98412.50
2023-02-04T03:34:37.106Z,98419.50
2023-02-04T03:36:41.608Z,98417.72
2023-02-04T03:38:45.723Z,98428.03
2023-02-04T03:40:49.825Z,98426.38
2023-02-04T03:42:53.990Z,98430.72
2023-02-04T03:44:58.047Z,98422.09
2023-02-04T03:47:03.491Z,98424.59
2023-02-04T03:49:07.564Z,98431.59
2023-02-04T03:51:11.711Z,98436.66
2023-02-04T03:53:15.813Z,98438.56
2023-02-04T03:55:19.980Z,98452.31
2023-02-04T03:57:24.114Z,98447.09
2023-02-04T03:59:28.233Z,98452.31
2023-02-04T04:01:32.419Z,98450.53
2023-02-04T04:03:37.844Z,98452.31
2023-02-04T04:05:41.982Z,98455.72
2023-02-04T04:07:46.065Z,98456.59
2023-02-04T04:09:50.134Z,98449.69
2023-02-04T04:11:54.335Z,98448.75
2023-02-04T04:13:58.406Z,98443.56
2023-02-04T04:16:03.434Z,98446.97
2023-02-04T04:18:07.597Z,98441.78
2023-02-04T04:20:13.591Z,98442.69
2023-02-04T04:22:17.655Z,98433.13
2023-02-04T04:24:21.767Z,98439.06
2023-02-04T04:26:25.984Z,98444.28
2023-02-04T04:28:30.091Z,98440.00
2023-02-04T04:30:34.502Z,98433.84
2023-02-04T04:32:39.121Z,98431.25
2023-02-04T04:34:43.766Z,98432.06
2023-02-04T04:36:49.243Z,98433.00
2023-02-04T04:38:53.326Z,98423.28
2023-02-04T04:40:57.454Z,98435.50
2023-02-04T04:43:01.520Z,98440.50
2023-02-04T04:45:06.725Z,98438.72
2023-02-04T04:47:10.799Z,98438.81
2023-02-04T04:49:15.002Z,98435.38
2023-02-04T04:51:19.156Z,98431.00
2023-02-04T04:53:24.644Z,98434.44
2023-02-04T04:55:29.202Z,98436.00
2023-02-04T04:57:33.346Z,98430.78
2023-02-04T04:59:37.405Z,98429.13
2023-02-04T05:01:41.535Z,98426.41
2023-02-04T05:03:45.654Z,98425.56
2023-02-04T05:05:49.735Z,98417.75
2023-02-04T05:07:54.418Z,98408.16
2023-02-04T05:09:59.860Z,98415.00
2023-02-04T05:12:04.304Z,98417.63
2023-02-04T05:14:08.457Z,98415.88
2023-02-04T05:16:12.958Z,98419.28
2023-02-04T05:18:17.052Z,98426.16
2023-02-04T05:20:21.231Z,98425.22
2023-02-04T05:22:25.393Z,98424.50
2023-02-04T05:24:29.525Z,98425.22
2023-02-04T05:26:35.077Z,98426.97
2023-02-04T05:28:39.203Z,98422.63
2023-02-04T05:30:43.398Z,98425.22
2023-02-04T05:32:47.524Z,98435.41
2023-02-04T05:34:51.807Z,98431.16
2023-02-04T05:36:55.925Z,98420.59
2023-02-04T05:39:00.049Z,98418.84
2023-02-04T05:41:04.175Z,98430.91
2023-02-04T05:43:09.646Z,98418.00
2023-02-04T05:45:15.792Z,98415.28
2023-02-04T05:47:20.408Z,98415.28
2023-02-04T05:49:24.794Z,98413.38
2023-02-04T05:51:28.899Z,98414.22
2023-02-04T05:53:32.984Z,98412.56
2023-02-04T05:55:37.062Z,98413.28
2023-02-04T05:57:41.200Z,98423.59
2023-02-04T05:59:46.634Z,98419.22
2023-02-04T06:01:50.712Z,98423.59
2023-02-04T06:03:54.873Z,98427.03
2023-02-04T06:05:59.019Z,98424.41
2023-02-04T06:08:03.072Z,98425.25
2023-02-04T06:10:07.435Z,98425.25
2023-02-04T06:12:11.575Z,98430.38
2023-02-04T06:14:15.673Z,98426.81
2023-02-04T06:16:21.100Z,98422.56
2023-02-04T06:18:25.233Z,98429.44
2023-02-04T06:20:29.486Z,98426.81
2023-02-04T06:22:33.860Z,98417.34
2023-02-04T06:24:37.942Z,98418.06
2023-02-04T06:26:42.091Z,98419.97
2023-02-04T06:28:46.173Z,98420.53
2023-02-04T06:30:50.403Z,98415.31
2023-02-04T06:32:55.867Z,98426.59
2023-02-04T06:35:00.509Z,98411.78
2023-02-04T06:37:04.756Z,98413.56
2023-02-04T06:39:08.857Z,98407.41
2023-02-04T06:41:12.975Z,98403.97
2023-02-04T06:43:17.117Z,98405.59
2023-02-04T06:45:21.581Z,98408.22
2023-02-04T06:47:25.934Z,98410.81
2023-02-04T06:49:31.395Z,98421.16
2023-02-04T06:51:35.956Z,98413.31
2023-02-04T06:53:40.266Z,98419.34
2023-02-04T06:55:44.354Z,98418.53
2023-02-04T06:57:48.454Z,98416.75
2023-02-04T06:59:52.803Z,98416.75
2023-02-04T07:01:56.882Z,98410.81
2023-02-04T07:04:00.980Z,98406.22
2023-02-04T07:06:06.700Z,98401.72
2023-02-04T07:08:10.816Z,98401.72
2023-02-04T07:10:16.696Z,98409.53
2023-02-04T07:12:21.131Z,98414.16
2023-02-04T07:14:25.290Z,98412.50
2023-02-04T07:16:29.371Z,98420.22
2023-02-04T07:18:33.500Z,98419.34
2023-02-04T07:20:37.653Z,98419.25
2023-02-04T07:22:43.108Z,98419.25
2023-02-04T07:24:47.225Z,98424.22
2023-02-04T07:26:51.470Z,98429.44
2023-02-04T07:28:55.546Z,98440.00
2023-02-04T07:30:59.696Z,98440.09
2023-02-04T07:33:03.816Z,98440.94
2023-02-04T07:35:08.688Z,98443.19
2023-02-04T07:37:12.805Z,98442.25
2023-02-04T07:39:18.232Z,98449.13
2023-02-04T07:41:22.302Z,98455.19
2023-02-04T07:43:26.412Z,98449.25
2023-02-04T07:45:30.533Z,98444.03
2023-02-04T07:47:34.598Z,98432.75
2023-02-04T07:49:38.686Z,98445.69
2023-02-04T07:51:42.752Z,98442.38
2023-02-04T07:53:46.834Z,98440.72
2023-02-04T07:55:52.294Z,98447.47
2023-02-04T07:57:56.437Z,98446.66
2023-02-04T08:00:00.742Z,98450.06
2023-02-04T08:02:04.907Z,98450.19
2023-02-04T08:04:09.001Z,98451.00
2023-02-04T08:06:13.086Z,98454.34
2023-02-04T08:08:17.475Z,98462.88
2023-02-04T08:10:21.709Z,98450.56
2023-02-04T08:12:27.627Z,98449.00
2023-02-04T08:14:31.780Z,98461.94
2023-02-04T08:16:35.901Z,98459.81
2023-02-04T08:18:39.988Z,98454.38
2023-02-04T08:20:44.130Z,98461.03
2023-02-04T08:22:48.190Z,98455.09
2023-02-04T08:24:52.264Z,98451.16
2023-02-04T08:26:56.347Z,98457.09
2023-02-04T08:29:01.809Z,98449.88
2023-02-04T08:31:06.863Z,98442.03
2023-02-04T08:33:11.089Z,98443.59
2023-02-04T08:35:15.427Z,98447.72
2023-02-04T08:37:19.507Z,98447.13
2023-02-04T08:39:23.634Z,98450.81
2023-02-04T08:41:27.710Z,98455.19
2023-02-04T08:43:31.795Z,98458.28
2023-02-04T08:45:37.255Z,98464.00
2023-02-04T08:47:41.338Z,98461.59
2023-02-04T08:49:45.424Z,98462.56
2023-02-04T08:51:53.030Z,98461.72
2023-02-04T08:53:57.187Z,98463.38
2023-02-04T08:56:01.260Z,98467.41
2023-02-04T08:58:05.353Z,98466.59
2023-02-04T09:00:11.546Z,98463.28
2023-02-04T09:02:17.045Z,98462.56
2023-02-04T09:04:21.250Z,98471.09
2023-02-04T09:06:25.343Z,98472.53
2023-02-04T09:08:29.759Z,98477.50
2023-02-04T09:10:34.190Z,98483.06
2023-02-04T09:12:38.432Z,98480.47
2023-02-04T09:14:42.514Z,98475.84
2023-02-04T09:16:46.795Z,98485.22
2023-02-04T09:18:52.277Z,98480.34
2023-02-04T09:20:56.371Z,98480.56
2023-02-04T09:23:00.487Z,98457.09
2023-02-04T09:25:04.634Z,98461.38
2023-02-04T09:27:08.722Z,98466.94
2023-02-04T09:29:13.165Z,98469.41
2023-02-04T09:31:17.768Z,98466.03
2023-02-04T09:33:21.865Z,98468.50
2023-02-04T09:35:27.388Z,98473.34
2023-02-04T09:37:31.446Z,98458.88
2023-02-04T09:39:35.515Z,98477.84
2023-02-04T09:41:40.465Z,98496.38
2023-02-04T09:43:45.372Z,98490.09
2023-02-04T09:45:49.792Z,98492.44
2023-02-04T09:47:54.154Z,98502.41
2023-02-04T09:49:58.309Z,98500.31
2023-02-04T09:52:03.754Z,98498.88
2023-02-04T09:54:09.984Z,98503.72
2023-02-04T09:56:14.849Z,98508.47
2023-02-04T09:58:19.745Z,98511.81
2023-02-04T10:00:25.116Z,98513.44
2023-02-04T10:02:29.197Z,98512.50
2023-02-04T10:04:33.288Z,98522.47
2023-02-04T10:06:37.791Z,98519.03
2023-02-04T10:08:43.342Z,98523.19
2023-02-04T10:10:48.758Z,98507.53
2023-02-04T10:12:53.525Z,98515.25
2023-02-04T10:14:57.663Z,98511.66
2023-02-04T10:17:02.040Z,98516.53
2023-02-04T10:19:08.218Z,98516.03
2023-02-04T10:21:18.113Z,98506.44
2023-02-04T10:23:22.350Z,98517.59
2023-02-04T10:25:28.940Z,98522.03
2023-02-04T10:27:33.058Z,98525.91
2023-02-04T10:29:37.329Z,98517.13
2023-02-04T10:31:42.388Z,98514.94
2023-02-04T10:33:46.218Z,98521.41
2023-02-04T10:35:52.442Z,98515.63
2023-02-04T10:38:06.714Z,98510.94
2023-02-04T10:40:31.919Z,98517.69
2023-02-04T10:42:35.870Z,98502.63
2023-02-04T10:44:40.338Z,98508.34
2023-02-04T10:46:44.207Z,98505.72
2023-02-04T10:48:48.004Z,98504.19
2023-02-04T10:50:52.219Z,98508.34
2023-02-04T10:53:17.724Z,98496.47
2023-02-04T10:55:22.246Z,98498.63
2023-02-04T10:57:28.730Z,98492.69
2023-02-04T10:59:32.552Z,98492.44
2023-02-04T11:01:36.523Z,98491.25
2023-02-04T11:03:40.864Z,98493.25
2023-02-04T11:05:44.716Z,98496.47
2023-02-04T11:07:49.359Z,98498.63
2023-02-04T11:09:53.196Z,98486.66
2023-02-04T11:11:59.606Z,98493.03
2023-02-04T11:14:04.818Z,98491.25
2023-02-04T11:16:13.063Z,98485.31
2023-02-04T11:18:29.968Z,98487.22
2023-02-04T11:20:35.373Z,98487.94
2023-02-04T11:22:43.671Z,98496.72
2023-02-04T11:24:47.493Z,98487.34
2023-02-04T11:26:52.526Z,98486.19
2023-02-04T11:29:26.186Z,98488.28
2023-02-04T11:31:45.520Z,98490.69
2023-02-04T11:33:50.457Z,98489.00
2023-02-04T11:36:04.452Z,98486.66
2023-02-04T11:38:25.352Z,98491.03
2023-02-04T11:40:30.985Z,98476.78
2023-02-04T11:42:41.134Z,98477.16
2023-02-04T11:44:50.310Z,98473.72
2023-02-04T11:46:55.519Z,98480.59
2023-02-04T11:49:00.583Z,98505.84
2023-02-04T11:51:05.815Z,98483.97
2023-02-04T11:53:11.224Z,98484.59
2023-02-04T11:55:15.365Z,98484.59
2023-02-04T11:57:20.273Z,98502.53
2023-02-04T11:59:24.306Z,98502.41
2023-02-04T12:01:33.844Z,98499.09
2023-02-04T12:03:46.412Z,98503.94
2023-02-04T12:05:50.579Z,98500.50
2023-02-04T12:07:54.485Z,98495.19
2023-02-04T12:09:58.868Z,98494.47
2023-02-04T12:12:03.812Z,98494.22
2023-02-04T12:14:09.364Z,98490.06
2023-02-04T12:16:13.283Z,98483.81
2023-02-04T12:18:18.490Z,98482.38
2023-02-04T12:20:22.309Z,98485.47
2023-02-04T12:22:26.301Z,98481.69
2023-02-04T12:24:30.222Z,98485.31
2023-02-04T12:26:34.160Z,98476.31
2023-02-04T12:28:38.027Z,98491.97
2023-02-04T12:30:41.836Z,98490.44
2023-02-04T12:32:45.737Z,98495.28
2023-02-04T12:34:50.941Z,98491.41
2023-02-04T12:36:55.148Z,98499.22
2023-02-04T12:38:59.529Z,98490.06
2023-02-04T12:41:03.369Z,98493.66
2023-02-04T12:43:07.263Z,98492.94
2023-02-04T12:45:12.164Z,98496.72
2023-02-04T12:47:16.003Z,98494.13
2023-02-04T12:49:20.079Z,98498.50
2023-02-04T12:51:25.333Z,98494.22
2023-02-04T12:53:29.286Z,98494.38
2023-02-04T12:55:33.460Z,98502.06
2023-02-04T12:57:37.611Z,98505.72
2023-02-04T12:59:41.466Z,98499.59
2023-02-04T13:01:45.340Z,98503.84
2023-02-04T13:03:49.403Z,98508.09
2023-02-04T13:05:53.304Z,98502.41
2023-02-04T13:07:58.479Z,98484.84
2023-02-04T13:10:02.416Z,98486.28
2023-02-04T13:12:06.841Z,98484.53
2023-02-04T13:14:10.671Z,98470.63
2023-02-04T13:16:14.515Z,98476.31
2023-02-04T13:18:19.295Z,98475.84
2023-02-04T13:20:23.185Z,98473.34
2023-02-04T13:22:27.156Z,98488.06
2023-02-04T13:24:32.494Z,98497.66
2023-02-04T13:26:36.334Z,98496.84
2023-02-04T13:28:40.224Z,98500.16
2023-02-04T13:30:44.124Z,98501.22
2023-02-04T13:32:48.118Z,98506.19
2023-02-04T13:34:51.956Z,98507.16
2023-02-04T13:36:56.001Z,98503.72
2023-02-04T13:39:00.731Z,98509.41
2023-02-04T13:41:06.669Z,98508.94
2023-02-04T13:43:10.560Z,98511.19
2023-02-04T13:45:16.160Z,98510.59
2023-02-04T13:47:20.161Z,98524.81
2023-02-04T13:49:24.088Z,98522.22
2023-02-04T13:51:27.943Z,98520.94
2023-02-04T13:53:31.844Z,98519.28
2023-02-04T13:55:35.967Z,98517.50
2023-02-04T13:57:41.111Z,98516.16
2023-02-04T13:59:44.973Z,98519.75
2023-02-04T14:01:48.795Z,98524.25
2023-02-04T14:03:52.624Z,98526.97
2023-02-04T14:05:57.396Z,98527.94
2023-02-04T14:08:01.239Z,98535.75
2023-02-04T14:10:05.937Z,98536.84
2023-02-04T14:12:09.774Z,98539.09
2023-02-04T14:14:14.959Z,98535.16
2023-02-04T14:16:18.914Z,98541.53
2023-02-04T14:18:22.770Z,98545.94
2023-02-04T14:20:26.577Z,98546.88
2023-02-04T14:22:30.413Z,98555.03
2023-02-04T14:24:34.243Z,98552.09
2023-02-04T14:26:38.084Z,98550.69
2023-02-04T14:28:41.875Z,98548.56
2023-02-04T14:30:47.096Z,98547.13
2023-02-04T14:32:50.982Z,98552.69
2023-02-04T14:34:55.109Z,98547.47
2023-02-04T14:36:59.079Z,98546.53
2023-02-04T14:39:02.906Z,98548.19
2023-02-04T14:41:07.103Z,98544.88
2023-02-04T14:43:11.938Z,98545.69
2023-02-04T14:45:15.954Z,98545.47
2023-02-04T14:47:21.244Z,98543.59
2023-02-04T14:49:25.644Z,98545.34
2023-02-04T14:51:29.476Z,98547.13
2023-02-04T14:53:33.272Z,98542.72
2023-02-04T14:55:37.128Z,98547.84
2023-02-04T14:57:40.929Z,98548.91
2023-02-04T14:59:44.728Z,98550.25
2023-02-04T15:01:48.621Z,98546.81
2023-02-04T15:03:53.802Z,98553.56
2023-02-04T15:05:57.642Z,98558.19
2023-02-04T15:08:01.452Z,98556.50
2023-02-04T15:10:06.109Z,98561.59
2023-02-04T15:12:09.895Z,98560.69
2023-02-04T15:14:13.681Z,98563.16
2023-02-04T15:16:17.841Z,98561.50
2023-02-04T15:18:21.746Z,98561.50
2023-02-04T15:20:26.896Z,98564.22
2023-02-04T15:22:31.055Z,98565.03
2023-02-04T15:24:34.851Z,98569.31
2023-02-04T15:26:38.925Z,98557.34
2023-02-04T15:28:42.736Z,98572.50
2023-02-04T15:30:46.682Z,98569.78
2023-02-04T15:32:50.532Z,98562.56
2023-02-04T15:34:54.346Z,98565.91
2023-02-04T15:36:59.597Z,98560.53
2023-02-04T15:39:03.648Z,98564.22
2023-02-04T15:41:07.474Z,98577.16
2023-02-04T15:43:11.279Z,98574.66
2023-02-04T15:45:15.149Z,98575.72
2023-02-04T15:47:19.749Z,98581.75
2023-02-04T15:49:23.614Z,98580.69
2023-02-04T15:51:27.442Z,98579.41
2023-02-04T15:53:34.639Z,98575.53
2023-02-04T15:55:38.444Z,98581.19
2023-02-04T15:57:42.623Z,98579.66
2023-02-04T15:59:46.429Z,98577.88
2023-02-04T16:01:50.662Z,98573.72
2023-02-04T16:03:56.438Z,98574.53
2023-02-04T16:06:00.321Z,98569.94
2023-02-04T16:08:04.241Z,98570.16
2023-02-04T16:10:10.067Z,98571.94
2023-02-04T16:12:13.912Z,98573.22
2023-02-04T16:14:17.755Z,98568.63
2023-02-04T16:16:21.618Z,98574.03
2023-02-04T16:18:25.653Z,98578.44
2023-02-04T16:20:29.579Z,98574.28
2023-02-04T16:22:33.395Z,98587.34
2023-02-04T16:24:38.511Z,98596.94
2023-02-04T16:26:43.699Z,98601.44
2023-02-04T16:28:47.850Z,98603.09
2023-02-04T16:30:51.747Z,98609.03
2023-02-04T16:32:55.651Z,98605.59
2023-02-04T16:35:00.387Z,98605.69
2023-02-04T16:37:04.232Z,98608.31
2023-02-04T16:39:08.234Z,98609.38
2023-02-04T16:41:14.121Z,98617.09
2023-02-04T16:43:19.291Z,98611.88
2023-02-04T16:45:24.321Z,98619.59
2023-02-04T16:47:28.256Z,98616.38
2023-02-04T16:49:32.084Z,98613.88
2023-02-04T16:51:35.946Z,98616.38
2023-02-04T16:53:39.804Z,98619.09
2023-02-04T16:55:44.007Z,98614.94
2023-02-04T16:57:47.837Z,98614.94
2023-02-04T16:59:53.013Z,98617.56
2023-02-04T17:01:57.581Z,98615.88
2023-02-04T17:04:01.476Z,98627.16
2023-02-04T17:06:05.849Z,98620.25
2023-02-04T17:08:11.128Z,98624.66
2023-02-04T17:10:37.201Z,98626.31
2023-02-04T17:12:40.994Z,98623.88
2023-02-04T17:14:44.807Z,98624.56
2023-02-04T17:16:51.377Z,98622.16
2023-02-04T17:18:55.867Z,98631.75
2023-02-04T17:21:00.050Z,98628.34
2023-02-04T17:23:03.921Z,98629.41
2023-02-04T17:25:08.578Z,98634.63
2023-02-04T17:27:12.379Z,98632.69
2023-02-04T17:29:17.805Z,98627.59
2023-02-04T17:31:22.796Z,98625.94
2023-02-04T17:33:28.546Z,98629.50
2023-02-04T17:35:33.290Z,98632.94
2023-02-04T17:37:37.241Z,98632.22
2023-02-04T17:39:41.231Z,98640.03
2023-02-04T17:41:45.055Z,98640.88
2023-02-04T17:43:48.884Z,98640.88
2023-02-04T17:45:52.740Z,98638.38
2023-02-04T17:47:56.555Z,98640.28
2023-02-04T17:50:03.554Z,98642.75
2023-02-04T17:52:07.409Z,98642.03
2023-02-04T17:54:12.752Z,98642.88
2023-02-04T17:56:16.717Z,98643.81
2023-02-04T17:58:23.124Z,98641.22
2023-02-04T18:00:29.867Z,98648.19
2023-02-04T18:02:34.145Z,98652.47
2023-02-04T18:04:41.341Z,98653.41
2023-02-04T18:06:52.607Z,98652.59
2023-02-04T18:09:01.477Z,98660.41
2023-02-04T18:11:14.034Z,98655.19
2023-02-04T18:13:25.538Z,98657.09
2023-02-04T18:15:31.148Z,98658.16
2023-02-04T18:17:35.344Z,98652.81
2023-02-04T18:19:40.493Z,98650.09
2023-02-04T18:21:46.525Z,98656.13
2023-02-04T18:24:11.471Z,98652.69
2023-02-04T18:26:17.957Z,98650.47
2023-02-04T18:28:22.710Z,98651.75
2023-02-04T18:30:27.808Z,98652.81
2023-02-04T18:32:36.807Z,98656.00
2023-02-04T18:34:42.191Z,98660.69
2023-02-04T18:36:47.402Z,98660.81
2023-02-04T18:38:51.522Z,98660.81
2023-02-04T18:41:03.615Z,98657.84
2023-02-04T18:43:17.896Z,98659.75
2023-02-04T18:45:24.917Z,98660.56
2023-02-04T18:47:32.144Z,98660.34
2023-02-04T18:49:37.260Z,98663.56
2023-02-04T18:51:41.485Z,98653.84
2023-02-04T18:53:46.727Z,98656.44
2023-02-04T18:55:51.677Z,98654.78
2023-02-04T18:57:55.491Z,98652.28
2023-02-04T19:00:18.373Z,98657.50
2023-02-04T19:02:36.296Z,98658.56
2023-02-04T19:04:40.147Z,98653.25
2023-02-04T19:06:44.797Z,98656.44
2023-02-04T19:08:49.961Z,98662.53
2023-02-04T19:10:55.086Z,98662.00
2023-02-04T19:13:11.939Z,98667.56
2023-02-04T19:15:34.890Z,98667.66
2023-02-04T19:17:38.923Z,98665.41
2023-02-04T19:19:45.187Z,98663.06
2023-02-04T19:21:49.465Z,98668.19
2023-02-04T19:23:59.670Z,98667.66
2023-02-04T19:26:03.519Z,98665.97
2023-02-04T19:28:25.520Z,98660.84
2023-02-04T19:30:45.145Z,98666.88
2023-02-04T19:32:53.379Z,98661.28
2023-02-04T19:35:01.158Z,98661.94
2023-02-04T19:37:16.567Z,98668.47
2023-02-04T19:39:30.540Z,98664.63
2023-02-04T19:41:41.485Z,98655.84
2023-02-04T19:43:45.457Z,98671.06
2023-02-04T19:45:50.849Z,98665.13
2023-02-04T19:47:55.271Z,98664.97
2023-02-04T19:50:14.838Z,98663.44
2023-02-04T19:52:34.693Z,98671.56
2023-02-04T19:54:40.308Z,98667.00
2023-02-04T19:56:44.125Z,98668.03
2023-02-04T19:58:47.960Z,98665.50
2023-02-04T20:00:58.292Z,98668.66
2023-02-04T20:03:02.233Z,98683.13
2023-02-04T20:05:15.982Z,98677.28
2023-02-04T20:07:20.998Z,98681.78
2023-02-04T20:09:29.138Z,98685.22
2023-02-04T20:12:05.618Z,98679.16
2023-02-04T20:14:40.354Z,98684.38
2023-02-04T20:16:48.707Z,98691.38
2023-02-04T20:18:52.905Z,98691.47
2023-02-04T20:20:56.829Z,98697.53
2023-02-04T20:23:01.156Z,98690.66
2023-02-04T20:25:37.541Z,98692.31
2023-02-04T20:27:42.796Z,98689.84
2023-02-04T20:29:46.733Z,98693.28
2023-02-04T20:31:50.877Z,98697.53
2023-02-04T20:33:55.840Z,98695.06
2023-02-04T20:36:28.318Z,98689.84
2023-02-04T20:38:32.237Z,98688.06
2023-02-04T20:40:36.829Z,98691.47
2023-02-04T20:42:45.250Z,98685.44
2023-02-04T20:44:49.113Z,98689.69
2023-02-04T20:46:52.986Z,98689.84
2023-02-04T20:48:57.714Z,98700.28
2023-02-04T20:51:04.532Z,98689.84
2023-02-04T20:53:23.271Z,98696.81
2023-02-04T20:55:28.718Z,98694.19
2023-02-04T20:57:32.698Z,98692.44
2023-02-04T20:59:37.993Z,98698.81
2023-02-04T21:01:43.903Z,98696.06
2023-02-04T21:03:48.360Z,98700.28
2023-02-04T21:05:52.455Z,98700.38
2023-02-04T21:07:57.729Z,98710.81
2023-02-04T21:10:04.034Z,98717.66
2023-02-04T21:12:08.203Z,98715.91
2023-02-04T21:14:12.011Z,98719.34
2023-02-04T21:16:17.244Z,98721.25
2023-02-04T21:18:21.225Z,98725.50
2023-02-04T21:20:25.426Z,98720.28
2023-02-04T21:22:29.275Z,98721.25
2023-02-04T21:24:33.668Z,98725.50
2023-02-04T21:26:37.548Z,98726.44
2023-02-04T21:28:41.443Z,98726.44
2023-02-04T21:30:45.335Z,98724.78
2023-02-04T21:32:50.594Z,98723.84
2023-02-04T21:34:54.494Z,98717.81
2023-02-04T21:36:58.334Z,98728.22
2023-02-04T21:39:02.151Z,98723.13
2023-02-04T21:41:06.484Z,98729.06
2023-02-04T21:43:10.694Z,98720.41
2023-02-04T21:45:14.616Z,98727.38
2023-02-04T21:47:18.430Z,98728.22
2023-02-04T21:49:23.625Z,98730.84
2023-02-04T21:51:28.012Z,98730.00
2023-02-04T21:53:31.954Z,98729.25
2023-02-04T21:55:36.237Z,98736.16
2023-02-04T21:57:40.343Z,98733.56
2023-02-04T21:59:48.137Z,98742.22
2023-02-04T22:01:52.180Z,98744.00
2023-02-04T22:03:56.099Z,98741.38
2023-02-04T22:06:01.332Z,98739.69
2023-02-04T22:08:05.164Z,98747.41
2023-02-04T22:10:10.575Z,98745.63
2023-02-04T22:12:14.389Z,98744.91
2023-02-04T22:14:19.155Z,98742.31
2023-02-04T22:16:23.069Z,98732.81
2023-02-04T22:18:26.955Z,98739.69
2023-02-04T22:20:31.014Z,98731.03
2023-02-04T22:22:36.208Z,98736.16
2023-02-04T22:24:40.047Z,98731.03
2023-02-04T22:26:43.876Z,98736.25
2023-02-04T22:28:47.848Z,98734.47
2023-02-04T22:30:53.947Z,98737.94
2023-02-04T22:33:00.000Z,98734.47
2023-02-04T22:35:03.828Z,98735.53
2023-02-04T22:37:07.666Z,98729.94
2023-02-04T22:39:12.970Z,98730.13
2023-02-04T22:41:16.897Z,98733.31
2023-02-04T22:43:21.008Z,98725.72
2023-02-04T22:45:25.310Z,98734.28
2023-02-04T22:47:29.367Z,98731.03
2023-02-04T22:49:35.042Z,98737.31
2023-02-04T22:51:38.836Z,98738.09
2023-02-04T22:53:42.657Z,98735.94
2023-02-04T22:55:48.112Z,98738.66
2023-02-04T22:57:51.944Z,98729.56
2023-02-04T22:59:55.783Z,98734.63
2023-02-04T23:01:59.682Z,98736.69
2023-02-04T23:04:03.577Z,98734.56
2023-02-04T23:06:07.419Z,98736.06
2023-02-04T23:08:11.318Z,98733.66
2023-02-04T23:10:15.179Z,98750.13
2023-02-04T23:12:20.404Z,98758.19
2023-02-04T23:14:24.297Z,98762.31
2023-02-04T23:16:28.177Z,98763.19
2023-02-04T23:18:32.043Z,98752.78
2023-02-04T23:20:35.969Z,98752.00
2023-02-04T23:22:39.832Z,98751.53
2023-02-04T23:24:43.926Z,98758.13
2023-02-04T23:26:48.131Z,98755.97
2023-02-04T23:28:53.336Z,98757.53
2023-02-04T23:30:57.265Z,98751.69
2023-02-04T23:33:01.151Z,98757.34
2023-02-04T23:35:06.402Z,98750.94
2023-02-04T23:37:10.244Z,98750.75
2023-02-04T23:39:14.644Z,98748.78
2023-02-04T23:41:19.202Z,98746.91
2023-02-04T23:43:23.189Z,98745.00
2023-02-04T23:45:28.426Z,98750.84
2023-02-04T23:47:32.268Z,98745.44
2023-02-04T23:49:36.104Z,98742.81
2023-02-04T23:51:39.944Z,98751.38
2023-02-04T23:53:43.801Z,98738.34
2023-02-04T23:55:47.663Z,98740.00
2023-02-04T23:57:51.820Z,98734.78
2023-02-04T23:59:55.653Z,98746.03
